createdAt,value
2019-02-02T00:03:08.570Z,23.27
2019-02-02T00:08:12.238Z,25.00
2019-02-02T00:13:15.652Z,22.40
2019-02-02T00:18:19.065Z,23.50
2019-02-02T00:23:22.562Z,24.57
2019-02-02T00:28:26.088Z,26.57
2019-02-02T00:33:29.574Z,27.17
2019-02-02T00:38:33.062Z,26.80
2019-02-02T00:43:38.554Z,24.90
2019-02-02T00:48:41.656Z,26.33
2019-02-02T00:53:45.241Z,24.83
2019-02-02T00:58:48.653Z,26.80
2019-02-02T01:03:52.075Z,27.03
2019-02-02T01:08:55.565Z,26.70
2019-02-02T01:13:59.131Z,29.63
2019-02-02T01:19:02.618Z,26.87
2019-02-02T01:24:06.485Z,27.67
2019-02-02T01:29:09.914Z,27.17
2019-02-02T01:34:13.343Z,25.20
2019-02-02T01:39:16.763Z,26.23
2019-02-02T01:44:20.267Z,26.57
2019-02-02T01:49:23.668Z,28.27
2019-02-02T01:54:27.091Z,26.90
2019-02-02T01:59:30.585Z,25.47
2019-02-02T02:04:33.948Z,24.40
2019-02-02T02:09:37.365Z,25.93
2019-02-02T02:14:40.799Z,26.97
2019-02-02T02:19:44.210Z,26.90
2019-02-02T02:24:47.637Z,28.90
2019-02-02T02:29:51.111Z,27.37
2019-02-02T02:34:54.541Z,27.20
2019-02-02T02:39:57.950Z,27.20
2019-02-02T02:45:01.403Z,27.80
2019-02-02T02:50:10.964Z,25.33
2019-02-02T02:55:15.709Z,26.17
2019-02-02T03:00:24.839Z,27.90
2019-02-02T03:05:28.402Z,27.10
2019-02-02T03:10:31.834Z,26.23
2019-02-02T03:15:35.265Z,26.80
2019-02-02T03:20:38.692Z,25.77
2019-02-02T03:25:42.145Z,24.10
2019-02-02T03:30:45.612Z,22.63
2019-02-02T03:35:48.991Z,22.43
2019-02-02T03:40:52.605Z,24.40
2019-02-02T03:45:56.096Z,25.23
2019-02-02T03:50:59.533Z,24.83
2019-02-02T03:56:02.948Z,27.57
2019-02-02T04:01:06.375Z,22.67
2019-02-02T04:06:09.934Z,27.03
2019-02-02T04:11:13.358Z,26.90
2019-02-02T04:16:16.855Z,24.33
2019-02-02T04:21:20.285Z,24.30
2019-02-02T04:26:23.705Z,23.73
2019-02-02T04:31:27.206Z,21.93
2019-02-02T04:36:30.695Z,22.80
2019-02-02T04:41:34.191Z,26.43
2019-02-02T04:46:37.631Z,23.37
2019-02-02T04:51:41.158Z,24.80
2019-02-02T04:56:44.609Z,25.87
2019-02-02T05:01:48.064Z,27.97
2019-02-02T05:06:51.473Z,27.13
2019-02-02T05:11:54.881Z,25.63
2019-02-02T05:16:58.292Z,24.37
2019-02-02T05:22:01.720Z,24.97
2019-02-02T05:27:05.153Z,27.37
2019-02-02T05:32:08.583Z,24.57
2019-02-02T05:37:12.031Z,27.00
2019-02-02T05:42:15.444Z,23.13
2019-02-02T05:47:18.857Z,24.43
2019-02-02T05:52:22.345Z,21.90
2019-02-02T05:57:25.794Z,22.13
2019-02-02T06:02:29.243Z,22.63
2019-02-02T06:07:32.804Z,23.20
2019-02-02T06:12:36.218Z,23.93
2019-02-02T06:17:39.658Z,26.17
2019-02-02T06:22:43.114Z,26.17
2019-02-02T06:27:46.601Z,26.07
2019-02-02T06:32:50.035Z,29.43
2019-02-02T06:37:53.537Z,28.57
2019-02-02T06:42:56.958Z,30.00
2019-02-02T06:48:00.630Z,30.63
2019-02-02T06:53:06.756Z,30.00
2019-02-02T06:58:09.857Z,31.90
2019-02-02T07:03:13.477Z,29.40
2019-02-02T07:08:16.926Z,28.97
2019-02-02T07:13:20.367Z,30.50
2019-02-02T07:18:23.807Z,27.30
2019-02-02T07:23:27.231Z,27.67
2019-02-02T07:28:30.651Z,29.33
2019-02-02T07:33:34.079Z,30.57
2019-02-02T07:38:37.569Z,29.23
2019-02-02T07:43:40.979Z,29.13
2019-02-02T07:48:44.407Z,33.83
2019-02-02T07:53:47.814Z,34.77
2019-02-02T07:58:51.262Z,36.10
2019-02-02T08:03:54.696Z,34.27
2019-02-02T08:08:58.114Z,37.83
2019-02-02T08:14:01.551Z,33.33
2019-02-02T08:19:05.232Z,35.23
2019-02-02T08:24:08.664Z,36.63
2019-02-02T08:29:12.081Z,33.53
2019-02-02T08:34:15.506Z,34.97
2019-02-02T08:39:28.928Z,32.87
2019-02-02T08:44:24.142Z,33.37
2019-02-02T08:49:27.578Z,35.97
2019-02-02T08:54:31.093Z,32.83
2019-02-02T08:59:34.515Z,37.93
2019-02-02T09:04:37.983Z,35.33
2019-02-02T09:09:41.445Z,35.60
2019-02-02T09:14:44.877Z,38.73
2019-02-02T09:19:48.316Z,40.90
2019-02-02T09:24:52.115Z,40.70
2019-02-02T09:29:55.746Z,39.53
2019-02-02T09:34:59.156Z,40.73
2019-02-02T09:40:02.663Z,41.57
2019-02-02T09:45:09.302Z,42.90
2019-02-02T09:50:15.694Z,43.33
2019-02-02T09:55:21.397Z,39.50
2019-02-02T10:00:27.452Z,41.23
2019-02-02T10:05:31.926Z,42.53
2019-02-02T10:10:35.707Z,45.33
2019-02-02T10:15:39.166Z,38.90
2019-02-02T10:20:42.582Z,43.00
2019-02-02T10:25:46.036Z,46.60
2019-02-02T10:30:49.611Z,45.90
2019-02-02T10:35:53.044Z,49.77
2019-02-02T10:40:56.483Z,43.77
2019-02-02T10:45:59.914Z,47.17
2019-02-02T10:51:03.327Z,43.67
2019-02-02T10:56:06.770Z,45.90
2019-02-02T11:01:10.217Z,44.97
2019-02-02T11:06:13.667Z,46.80
2019-02-02T11:11:17.116Z,45.63
2019-02-02T11:16:20.542Z,45.53
2019-02-02T11:21:24.008Z,48.40
2019-02-02T11:26:27.538Z,46.13
2019-02-02T11:31:30.921Z,43.47
2019-02-02T11:36:34.365Z,43.00
2019-02-02T11:41:37.794Z,48.53
2019-02-02T11:46:41.248Z,48.63
2019-02-02T11:51:44.705Z,46.63
2019-02-02T11:56:48.128Z,48.17
2019-02-02T12:01:51.593Z,46.83
2019-02-02T12:06:55.019Z,48.50
2019-02-02T12:11:58.628Z,48.53
2019-02-02T12:17:02.050Z,48.80
2019-02-02T12:22:05.626Z,48.07
2019-02-02T12:27:09.071Z,48.20
2019-02-02T12:32:12.499Z,49.77
2019-02-02T12:37:16.104Z,47.03
2019-02-02T12:42:19.519Z,49.93
2019-02-02T12:47:22.964Z,47.47
2019-02-02T12:52:26.454Z,48.93
2019-02-02T12:57:30.029Z,50.37
2019-02-02T13:02:38.259Z,47.13
2019-02-02T13:07:38.649Z,51.63
2019-02-02T13:12:42.147Z,50.00
2019-02-02T13:17:45.600Z,58.10
2019-02-02T13:22:49.050Z,56.23
2019-02-02T13:27:52.761Z,53.67
2019-02-02T13:32:56.199Z,50.00
2019-02-02T13:37:59.635Z,51.73
2019-02-02T13:43:03.124Z,59.13
2019-02-02T13:48:06.634Z,57.30
2019-02-02T13:53:10.235Z,57.53
2019-02-02T13:58:13.662Z,54.97
2019-02-02T14:03:17.128Z,65.30
2019-02-02T14:08:20.558Z,62.23
2019-02-02T14:13:24.004Z,76.30
2019-02-02T14:18:27.443Z,66.80
2019-02-02T14:23:30.870Z,70.33
2019-02-02T14:28:34.366Z,64.37
2019-02-02T14:33:37.795Z,62.70
2019-02-02T14:38:41.273Z,60.40
2019-02-02T14:43:44.768Z,70.50
2019-02-02T14:48:48.206Z,59.90
2019-02-02T14:53:51.684Z,68.27
2019-02-02T15:10:14.331Z,65.27
2019-02-02T15:15:18.520Z,104.67
2019-02-02T15:20:27.416Z,84.80
2019-02-02T15:25:30.913Z,78.70
2019-02-02T15:30:36.300Z,69.10
2019-02-02T15:35:39.851Z,65.50
2019-02-02T15:40:43.390Z,57.07
2019-02-02T15:45:46.895Z,55.80
2019-02-02T15:50:50.405Z,56.50
2019-02-02T15:55:54.002Z,54.37
2019-02-02T16:00:57.510Z,56.30
2019-02-02T16:06:01.071Z,55.40
2019-02-02T16:11:05.068Z,57.97
2019-02-02T16:16:08.826Z,58.87
2019-02-02T16:21:12.246Z,56.93
2019-02-02T16:26:15.719Z,55.20
2019-02-02T16:31:19.437Z,54.37
2019-02-02T16:36:22.858Z,54.33
2019-02-02T16:41:26.376Z,56.60
2019-02-02T16:46:29.870Z,59.93
2019-02-02T16:51:33.312Z,59.50
2019-02-02T16:56:36.751Z,63.83
2019-02-02T17:01:40.211Z,52.37
2019-02-02T17:06:43.878Z,60.10
2019-02-02T17:11:47.410Z,56.37
2019-02-02T17:16:50.895Z,58.00
2019-02-02T17:21:55.212Z,58.30
2019-02-02T17:26:58.626Z,55.87
2019-02-02T17:32:02.142Z,59.00
2019-02-02T17:37:05.682Z,58.90
2019-02-02T17:42:09.121Z,57.50
2019-02-02T17:47:12.572Z,58.47
2019-02-02T17:52:16.934Z,54.07
2019-02-02T17:57:20.443Z,57.37
2019-02-02T18:02:23.871Z,55.27
2019-02-02T18:07:27.318Z,51.97
2019-02-02T18:12:30.779Z,56.97
2019-02-02T18:17:34.207Z,54.33
2019-02-02T18:22:37.624Z,54.40
2019-02-02T18:27:41.155Z,59.17
2019-02-02T18:32:44.604Z,56.10
2019-02-02T18:37:48.139Z,57.87
2019-02-02T18:42:52.030Z,59.87
2019-02-02T18:47:55.549Z,49.13
2019-02-02T18:53:00.254Z,56.53
2019-02-02T18:58:03.690Z,56.97
2019-02-02T19:03:07.524Z,56.57
2019-02-02T19:08:10.951Z,53.80
2019-02-02T19:13:14.385Z,66.43
2019-02-02T19:18:17.881Z,62.47
2019-02-02T19:23:25.261Z,54.47
2019-02-02T19:28:39.171Z,62.70
2019-02-02T19:33:32.069Z,60.80
2019-02-02T19:38:35.545Z,60.03
2019-02-02T19:43:38.975Z,63.00
2019-02-02T19:48:42.587Z,64.27
2019-02-02T19:53:46.096Z,59.27
2019-02-02T19:58:49.540Z,64.13
2019-02-02T20:03:56.719Z,63.00
2019-02-02T20:09:00.324Z,67.07
2019-02-02T20:14:04.337Z,61.90
2019-02-02T20:19:07.782Z,65.90
2019-02-02T20:24:11.290Z,61.30
2019-02-02T20:29:14.710Z,64.53
2019-02-02T20:34:18.154Z,74.53
2019-02-02T20:39:21.615Z,68.20
2019-02-02T20:44:25.042Z,76.27
2019-02-02T20:49:28.565Z,79.50
2019-02-02T20:54:32.000Z,77.03
2019-02-02T20:59:35.506Z,74.13
2019-02-02T21:04:39.090Z,79.13
2019-02-02T21:09:42.536Z,76.00
2019-02-02T21:14:46.010Z,78.37
2019-02-02T21:19:49.491Z,73.80
2019-02-02T21:24:52.927Z,71.70
2019-02-02T21:29:56.671Z,74.00
2019-02-02T21:35:00.142Z,70.20
2019-02-02T21:40:05.255Z,70.70
2019-02-02T21:45:11.641Z,70.33
2019-02-02T21:50:38.533Z,73.10
2019-02-02T21:55:41.983Z,68.40
2019-02-02T22:00:45.586Z,66.80
2019-02-02T22:05:49.042Z,66.37
2019-02-02T22:10:52.492Z,73.70
2019-02-02T22:15:56.032Z,73.03
2019-02-02T22:20:59.462Z,68.57
2019-02-02T22:26:02.893Z,64.30
2019-02-02T22:31:06.372Z,61.30
2019-02-02T22:36:09.863Z,61.37
2019-02-02T22:41:13.315Z,58.47
2019-02-02T22:46:16.877Z,63.40
2019-02-02T22:51:20.307Z,64.07
2019-02-02T22:56:24.199Z,56.53
2019-02-02T23:01:29.257Z,55.47
2019-02-02T23:06:44.202Z,60.37
2019-02-02T23:11:50.697Z,58.00
2019-02-02T23:16:54.204Z,60.63
2019-02-02T23:21:57.658Z,60.37
2019-02-02T23:27:01.099Z,63.90
2019-02-02T23:32:04.889Z,58.20
2019-02-02T23:37:08.748Z,60.77
2019-02-02T23:42:12.277Z,64.87
2019-02-02T23:47:15.730Z,59.30
2019-02-02T23:52:19.197Z,57.13
2019-02-02T23:57:22.655Z,56.50
